createdAt,value
2019-02-06T00:00:28.582Z,5.1
2019-02-06T00:01:12.890Z,5.1
2019-02-06T00:02:02.663Z,5.1
2019-02-06T00:02:53.915Z,5.1
2019-02-06T00:03:43.048Z,5.1
2019-02-06T00:04:33.127Z,5.1
2019-02-06T00:05:22.917Z,5.1
2019-02-06T00:06:13.265Z,5.1
2019-02-06T00:07:03.070Z,5.1
2019-02-06T00:07:53.380Z,5.1
2019-02-06T00:08:44.817Z,5.1
2019-02-06T00:09:33.237Z,5.1
2019-02-06T00:10:23.540Z,5.1
2019-02-06T00:11:13.639Z,5.1
2019-02-06T00:12:03.469Z,5.1
2019-02-06T00:12:53.467Z,5.1
2019-02-06T00:13:43.847Z,5.1
2019-02-06T00:14:34.714Z,5.1
2019-02-06T00:15:23.489Z,5.1
2019-02-06T00:16:14.075Z,5.1
2019-02-06T00:17:03.610Z,5.1
2019-02-06T00:17:54.165Z,5.1
2019-02-06T00:18:44.239Z,5.1
2019-02-06T00:19:33.892Z,5.1
2019-02-06T00:20:24.339Z,5.1
2019-02-06T00:21:14.129Z,5.1
2019-02-06T00:22:04.067Z,5.1
2019-02-06T00:22:54.131Z,5.1
2019-02-06T00:23:45.695Z,5.1
2019-02-06T00:24:34.638Z,5.1
2019-02-06T00:25:24.299Z,5.1
2019-02-06T00:26:14.102Z,5.1
2019-02-06T00:27:04.414Z,5.1
2019-02-06T00:27:54.216Z,5.1
2019-02-06T00:28:44.813Z,5.1
2019-02-06T00:29:34.963Z,5.1
2019-02-06T00:30:24.382Z,5.1
2019-02-06T00:31:14.708Z,5.1
2019-02-06T00:32:05.040Z,5.1
2019-02-06T00:32:55.541Z,5.1
2019-02-06T00:33:45.200Z,5.1
2019-02-06T00:34:34.670Z,5.1
2019-02-06T00:35:28.092Z,5.1
2019-02-06T00:36:15.338Z,5.1
2019-02-06T00:37:05.249Z,5.1
2019-02-06T00:37:55.450Z,5.1
2019-02-06T00:38:45.240Z,5.1
2019-02-06T00:39:35.295Z,5.1
2019-02-06T00:40:25.645Z,5.1
2019-02-06T00:41:14.865Z,5.1
2019-02-06T00:42:06.925Z,5.1
2019-02-06T00:42:55.535Z,5.1
2019-02-06T00:43:45.864Z,5.1
2019-02-06T00:44:35.943Z,5.1
2019-02-06T00:45:26.000Z,5.1
2019-02-06T00:46:16.063Z,5.1
2019-02-06T00:47:06.134Z,5.1
2019-02-06T00:47:55.994Z,5.1
2019-02-06T00:48:46.229Z,5.1
2019-02-06T00:49:36.306Z,5.1
2019-02-06T00:50:26.414Z,5.1
2019-02-06T00:51:16.820Z,5.1
2019-02-06T00:52:06.182Z,5.1
2019-02-06T00:52:56.524Z,5.1
2019-02-06T00:53:46.583Z,5.1
2019-02-06T00:54:36.449Z,5.1
2019-02-06T00:55:26.424Z,5.1
2019-02-06T00:56:16.487Z,5.1
2019-02-06T00:57:07.560Z,5.1
2019-02-06T00:57:56.687Z,5.1
2019-02-06T00:58:46.944Z,5.1
2019-02-06T00:59:36.773Z,5.1
2019-02-06T01:00:26.786Z,5.1
2019-02-06T01:01:17.125Z,5.1
2019-02-06T01:02:06.898Z,5.1
2019-02-06T01:02:57.236Z,5.1
2019-02-06T01:03:47.050Z,5.1
2019-02-06T01:04:36.791Z,5.1
2019-02-06T01:05:40.164Z,5.1
2019-02-06T01:06:18.576Z,5.1
2019-02-06T01:07:07.363Z,5.1
2019-02-06T01:07:57.326Z,5
2019-02-06T01:08:47.657Z,5
2019-02-06T01:09:37.711Z,5.1
2019-02-06T01:10:27.226Z,5
2019-02-06T01:11:17.542Z,5
2019-02-06T01:12:07.613Z,5
2019-02-06T01:12:57.714Z,5
2019-02-06T01:13:47.576Z,5
2019-02-06T01:14:37.611Z,5
2019-02-06T01:15:29.150Z,5
2019-02-06T01:16:18.180Z,5
2019-02-06T01:17:08.229Z,5
2019-02-06T01:17:58.325Z,5
2019-02-06T01:18:48.405Z,5
2019-02-06T01:19:38.148Z,5
2019-02-06T01:20:28.458Z,5
2019-02-06T01:21:19.253Z,5
2019-02-06T01:22:08.350Z,5
2019-02-06T01:22:58.372Z,5
2019-02-06T01:23:48.705Z,4.9
2019-02-06T01:24:38.774Z,4.9
2019-02-06T01:25:28.892Z,4.9
2019-02-06T01:26:19.005Z,4.9
2019-02-06T01:27:08.943Z,4.9
2019-02-06T01:27:59.092Z,4.9
2019-02-06T01:28:49.053Z,4.9
2019-02-06T01:29:39.120Z,4.9
2019-02-06T01:30:30.509Z,4.9
2019-02-06T01:31:18.960Z,4.9
2019-02-06T01:32:09.297Z,4.9
2019-02-06T01:32:59.405Z,4.9
2019-02-06T01:33:49.406Z,4.9
2019-02-06T01:34:39.277Z,4.9
2019-02-06T01:35:29.580Z,4.9
2019-02-06T01:36:20.063Z,4.9
2019-02-06T01:37:09.509Z,4.9
2019-02-06T01:37:59.421Z,4.9
2019-02-06T01:38:49.224Z,4.9
2019-02-06T01:39:39.534Z,4.9
2019-02-06T01:40:29.609Z,4.9
2019-02-06T01:41:19.678Z,4.8
2019-02-06T01:42:10.005Z,4.8
2019-02-06T01:42:59.506Z,4.9
2019-02-06T01:43:49.831Z,4.8
2019-02-06T01:44:40.178Z,4.8
2019-02-06T01:45:30.902Z,4.8
2019-02-06T01:46:20.033Z,4.8
2019-02-06T01:47:10.206Z,4.8
2019-02-06T01:48:00.410Z,4.8
2019-02-06T01:48:50.499Z,4.8
2019-02-06T01:49:40.261Z,4.8
2019-02-06T01:50:30.586Z,4.8
2019-02-06T01:51:20.638Z,4.8
2019-02-06T01:52:10.441Z,4.8
2019-02-06T01:52:59.935Z,4.8
2019-02-06T01:53:50.674Z,4.8
2019-02-06T01:54:41.900Z,4.8
2019-02-06T01:55:30.949Z,4.8
2019-02-06T01:56:21.083Z,4.8
2019-02-06T01:57:11.073Z,4.8
2019-02-06T01:58:01.143Z,4.8
2019-02-06T01:58:50.916Z,4.8
2019-02-06T01:59:41.347Z,4.8
2019-02-06T02:00:32.050Z,4.8
2019-02-06T02:01:21.095Z,4.8
2019-02-06T02:02:11.152Z,4.8
2019-02-06T02:03:01.595Z,4.7
2019-02-06T02:03:51.250Z,4.7
2019-02-06T02:04:41.585Z,4.7
2019-02-06T02:05:31.389Z,4.7
2019-02-06T02:06:21.710Z,4.7
2019-02-06T02:07:11.338Z,4.7
2019-02-06T02:08:01.269Z,4.7
2019-02-06T02:08:51.344Z,4.7
2019-02-06T02:09:42.731Z,4.7
2019-02-06T02:10:31.737Z,4.7
2019-02-06T02:11:21.792Z,4.7
2019-02-06T02:12:11.590Z,4.7
2019-02-06T02:13:02.189Z,4.7
2019-02-06T02:13:51.694Z,4.7
2019-02-06T02:14:42.031Z,4.6
2019-02-06T02:15:32.377Z,4.6
2019-02-06T02:16:22.146Z,4.6
2019-02-06T02:17:12.211Z,4.6
2019-02-06T02:18:02.267Z,4.6
2019-02-06T02:18:53.566Z,4.6
2019-02-06T02:19:42.666Z,4.6
2019-02-06T02:20:32.716Z,4.6
2019-02-06T02:21:22.512Z,4.6
2019-02-06T02:22:12.884Z,4.6
2019-02-06T02:23:02.626Z,4.6
2019-02-06T02:23:52.671Z,4.6
2019-02-06T02:24:43.184Z,4.6
2019-02-06T02:25:33.061Z,4.6
2019-02-06T02:26:22.576Z,4.6
2019-02-06T02:27:12.908Z,4.6
2019-02-06T02:28:04.660Z,4.6
2019-02-06T02:28:53.029Z,4.6
2019-02-06T02:29:43.360Z,4.6
2019-02-06T02:30:33.186Z,4.6
2019-02-06T02:31:23.213Z,4.5
2019-02-06T02:32:13.541Z,4.6
2019-02-06T02:33:03.334Z,4.5
2019-02-06T02:33:53.106Z,4.5
2019-02-06T02:34:43.450Z,4.5
2019-02-06T02:35:33.785Z,4.5
2019-02-06T02:36:23.298Z,4.5
2019-02-06T02:37:16.170Z,4.5
2019-02-06T02:38:04.068Z,4.5
2019-02-06T02:38:54.024Z,4.5
2019-02-06T02:39:43.831Z,4.5
2019-02-06T02:40:34.145Z,4.5
2019-02-06T02:41:24.203Z,4.5
2019-02-06T02:42:14.175Z,4.5
2019-02-06T02:43:04.296Z,4.5
2019-02-06T02:43:54.381Z,4.5
2019-02-06T02:44:44.435Z,4.5
2019-02-06T02:45:34.546Z,4.4
2019-02-06T02:46:25.272Z,4.5
2019-02-06T02:47:14.604Z,4.5
2019-02-06T02:48:04.674Z,4.5
2019-02-06T02:48:54.735Z,4.4
2019-02-06T02:49:44.779Z,4.4
2019-02-06T02:50:34.562Z,4.5
2019-02-06T02:51:24.936Z,4.4
2019-02-06T02:52:15.850Z,4.4
2019-02-06T02:53:04.791Z,4.4
2019-02-06T02:53:55.120Z,4.4
2019-02-06T02:54:45.139Z,4.4
2019-02-06T02:55:35.051Z,4.4
2019-02-06T02:56:25.399Z,4.4
2019-02-06T02:57:15.319Z,4.4
2019-02-06T02:58:05.099Z,4.4
2019-02-06T02:58:55.453Z,4.4
2019-02-06T02:59:45.484Z,4.4
2019-02-06T03:00:35.309Z,4.4
2019-02-06T03:01:26.704Z,4.4
2019-02-06T03:02:15.666Z,4.4
2019-02-06T03:03:05.730Z,4.4
2019-02-06T03:03:55.531Z,4.4
2019-02-06T03:04:45.567Z,4.4
2019-02-06T03:08:18.380Z,4.4
2019-02-06T03:09:07.316Z,4.4
2019-02-06T03:09:57.650Z,4.3
2019-02-06T03:10:47.491Z,4.4
2019-02-06T03:11:37.505Z,4.4
2019-02-06T03:12:27.548Z,4.4
2019-02-06T03:13:17.606Z,4.3
2019-02-06T03:14:08.005Z,4.4
2019-02-06T03:14:57.999Z,4.3
2019-02-06T03:15:48.093Z,4.4
2019-02-06T03:16:38.132Z,4.3
2019-02-06T03:17:29.458Z,4.3
2019-02-06T03:18:17.958Z,4.3
2019-02-06T03:19:08.310Z,4.3
2019-02-06T03:19:58.480Z,4.3
2019-02-06T03:20:48.609Z,4.3
2019-02-06T03:21:38.482Z,4.3
2019-02-06T03:22:28.573Z,4.3
2019-02-06T03:23:19.290Z,4.3
2019-02-06T03:24:08.475Z,4.3
2019-02-06T03:24:58.714Z,4.3
2019-02-06T03:25:48.774Z,4.3
2019-02-06T03:26:38.574Z,4.3
2019-02-06T03:27:28.897Z,4.3
2019-02-06T03:28:18.699Z,4.3
2019-02-06T03:29:08.998Z,4.3
2019-02-06T03:29:59.080Z,4.3
2019-02-06T03:30:49.188Z,4.3
2019-02-06T03:31:39.322Z,4.3
2019-02-06T03:32:29.728Z,4.3
2019-02-06T03:33:19.380Z,4.3
2019-02-06T03:34:09.117Z,4.3
2019-02-06T03:34:59.159Z,4.3
2019-02-06T03:35:49.597Z,4.3
2019-02-06T03:36:42.796Z,4.3
2019-02-06T03:37:29.594Z,4.3
2019-02-06T03:38:19.686Z,4.3
2019-02-06T03:39:09.712Z,4.3
2019-02-06T03:39:59.201Z,4.3
2019-02-06T03:40:49.838Z,4.3
2019-02-06T03:41:40.828Z,4.2
2019-02-06T03:42:29.691Z,4.2
2019-02-06T03:43:20.113Z,4.2
2019-02-06T03:44:09.803Z,4.2
2019-02-06T03:45:00.117Z,4.2
2019-02-06T03:45:50.193Z,4.2
2019-02-06T03:46:40.378Z,4.2
2019-02-06T03:47:30.789Z,4.2
2019-02-06T03:48:20.338Z,4.2
2019-02-06T03:49:10.466Z,4.2
2019-02-06T03:50:00.483Z,4.1
2019-02-06T03:50:50.739Z,4.1
2019-02-06T03:51:40.595Z,4.1
2019-02-06T03:52:30.369Z,4.1
2019-02-06T03:53:20.435Z,4.1
2019-02-06T03:54:10.753Z,4.1
2019-02-06T03:55:00.854Z,4.1
2019-02-06T03:55:50.601Z,4.1
2019-02-06T03:56:41.925Z,4.1
2019-02-06T03:57:31.006Z,4.1
2019-02-06T03:58:21.053Z,4.1
2019-02-06T03:59:11.120Z,4.1
2019-02-06T04:00:01.552Z,4.1
2019-02-06T04:00:51.218Z,4.1
2019-02-06T04:01:41.295Z,4.1
2019-02-06T04:02:31.352Z,4.1
2019-02-06T04:03:21.412Z,4.1
2019-02-06T04:04:11.460Z,4.1
2019-02-06T04:05:01.390Z,4.1
2019-02-06T04:05:52.313Z,4
2019-02-06T04:07:03.730Z,4
2019-02-06T04:07:31.684Z,4
2019-02-06T04:08:21.739Z,4
2019-02-06T04:09:11.909Z,3.9
2019-02-06T04:10:01.462Z,4
2019-02-06T04:10:51.387Z,4
2019-02-06T04:11:42.159Z,3.9
2019-02-06T04:12:31.784Z,3.9
2019-02-06T04:13:22.101Z,3.9
2019-02-06T04:14:12.190Z,3.9
2019-02-06T04:15:03.736Z,3.9
2019-02-06T04:15:52.324Z,3.9
2019-02-06T04:16:42.450Z,3.9
2019-02-06T04:17:32.130Z,3.9
2019-02-06T04:18:21.903Z,3.9
2019-02-06T04:19:12.528Z,3.9
2019-02-06T04:20:02.681Z,3.9
2019-02-06T04:20:52.844Z,3.9
2019-02-06T04:21:42.681Z,3.9
2019-02-06T04:22:32.204Z,3.9
2019-02-06T04:23:22.849Z,3.9
2019-02-06T04:24:13.931Z,3.9
2019-02-06T04:25:02.950Z,3.9
2019-02-06T04:25:52.979Z,3.9
2019-02-06T04:26:43.039Z,3.8
2019-02-06T04:27:33.102Z,3.8
2019-02-06T04:28:23.149Z,3.8
2019-02-06T04:29:13.206Z,3.8
2019-02-06T04:30:03.461Z,3.8
2019-02-06T04:30:53.361Z,3.8
2019-02-06T04:31:43.416Z,3.8
2019-02-06T04:32:33.158Z,3.8
2019-02-06T04:33:23.284Z,3.8
2019-02-06T04:34:13.702Z,3.8
2019-02-06T06:06:16.835Z,3.3
2019-02-06T06:07:07.450Z,3.3
2019-02-06T06:07:58.774Z,3.3
2019-02-06T06:08:47.299Z,3.3
2019-02-06T06:09:37.687Z,3.3
2019-02-06T06:10:27.676Z,3.3
2019-02-06T06:11:17.722Z,3.3
2019-02-06T06:12:07.546Z,3.3
2019-02-06T06:12:57.577Z,3.3
2019-02-06T06:13:48.424Z,3.3
2019-02-06T06:14:38.001Z,3.3
2019-02-06T06:15:27.749Z,3.3
2019-02-06T06:16:18.099Z,3.3
2019-02-06T06:17:08.133Z,3.3
2019-02-06T06:17:58.218Z,3.3
2019-02-06T06:18:48.244Z,3.3
2019-02-06T06:19:38.311Z,3.3
2019-02-06T06:20:28.358Z,3.3
2019-02-06T06:21:18.414Z,3.3
2019-02-06T06:22:08.499Z,3.3
2019-02-06T06:22:59.603Z,3.4
2019-02-06T06:23:48.594Z,3.3
2019-02-06T06:24:38.096Z,3.3
2019-02-06T06:25:29.044Z,3.3
2019-02-06T06:26:18.771Z,3.4
2019-02-06T06:27:08.827Z,3.4
2019-02-06T06:27:58.888Z,3.4
2019-02-06T06:28:49.408Z,3.4
2019-02-06T06:29:38.730Z,3.4
2019-02-06T06:30:28.911Z,3.4
2019-02-06T06:31:19.131Z,3.4
2019-02-06T06:32:09.190Z,3.4
2019-02-06T06:32:59.258Z,3.5
2019-02-06T06:33:48.755Z,3.5
2019-02-06T06:34:38.799Z,3.5
2019-02-06T06:35:28.885Z,3.6
2019-02-06T06:36:19.197Z,3.6
2019-02-06T06:37:09.241Z,3.6
2019-02-06T06:38:04.740Z,3.6
2019-02-06T06:38:49.365Z,3.6
2019-02-06T06:39:39.702Z,3.6
2019-02-06T06:40:29.483Z,3.7
2019-02-06T06:41:18.997Z,3.7
2019-02-06T06:42:09.363Z,3.7
2019-02-06T06:42:59.670Z,3.8
2019-02-06T06:43:49.987Z,3.8
2019-02-06T06:44:39.762Z,3.8
2019-02-06T06:45:30.114Z,3.8
2019-02-06T06:46:19.604Z,3.8
2019-02-06T06:47:11.361Z,3.9
2019-02-06T06:48:00.001Z,3.9
2019-02-06T06:48:49.777Z,3.9
2019-02-06T06:49:40.409Z,3.9
2019-02-06T06:50:30.469Z,4
2019-02-06T06:51:20.602Z,4.1
2019-02-06T06:52:10.299Z,4.1
2019-02-06T06:53:01.081Z,4.1
2019-02-06T06:53:50.406Z,4.1
2019-02-06T06:54:40.751Z,4.2
2019-02-06T06:55:30.524Z,4.3
2019-02-06T06:56:20.054Z,4.3
2019-02-06T06:57:13.766Z,4.4
2019-02-06T06:58:00.711Z,4.4
2019-02-06T06:58:51.156Z,4.4
2019-02-06T06:59:40.968Z,4.6
2019-02-06T07:00:30.887Z,4.6
2019-02-06T07:01:21.221Z,4.7
2019-02-06T07:02:12.083Z,4.8
2019-02-06T07:03:01.076Z,4.8
2019-02-06T07:03:51.119Z,4.9
2019-02-06T07:06:17.081Z,5.1
2019-02-06T07:07:07.380Z,5.2
2019-02-06T07:08:13.857Z,5.3
2019-02-06T07:08:47.230Z,5.4
2019-02-06T07:09:37.558Z,5.4
2019-02-06T07:10:27.628Z,5.5
2019-02-06T07:11:17.670Z,5.6
2019-02-06T07:12:07.465Z,5.6
2019-02-06T07:12:57.520Z,5.8
2019-02-06T07:13:47.575Z,5.8
2019-02-06T07:14:37.910Z,5.9
2019-02-06T07:15:27.973Z,5.9
2019-02-06T07:16:17.762Z,6
2019-02-06T07:17:09.056Z,6
2019-02-06T07:17:57.873Z,6.1
2019-02-06T07:18:48.192Z,6.1
2019-02-06T07:19:38.257Z,6.2
2019-02-06T07:20:28.310Z,6.3
2019-02-06T07:21:18.094Z,6.4
2019-02-06T07:22:08.419Z,6.4
2019-02-06T07:22:58.213Z,6.4
2019-02-06T07:23:48.262Z,6.5
2019-02-06T07:24:38.329Z,6.6
2019-02-06T07:25:28.402Z,6.6
2019-02-06T07:26:19.514Z,6.7
2019-02-06T07:27:08.507Z,6.8
2019-02-06T07:27:58.575Z,6.8
2019-02-06T07:28:48.629Z,6.9
2019-02-06T07:29:38.951Z,6.9
2019-02-06T07:30:29.037Z,6.9
2019-02-06T07:31:19.079Z,7
2019-02-06T07:32:09.111Z,7
2019-02-06T07:32:58.621Z,7.1
2019-02-06T07:33:48.693Z,7.1
2019-02-06T07:34:39.044Z,7.1
2019-02-06T07:35:30.099Z,7.2
2019-02-06T07:36:19.134Z,7.3
2019-02-06T07:37:09.216Z,7.3
2019-02-06T07:37:59.247Z,7.3
2019-02-06T07:38:49.583Z,7.3
2019-02-06T07:39:39.382Z,7.3
2019-02-06T07:40:29.428Z,7.4
2019-02-06T07:41:20.271Z,7.4
2019-02-06T07:42:09.541Z,7.4
2019-02-06T07:42:59.885Z,7.4
2019-02-06T07:43:49.940Z,7.4
2019-02-06T07:44:40.308Z,7.4
2019-02-06T07:45:30.068Z,7.4
2019-02-06T07:46:20.125Z,7.4
2019-02-06T07:47:10.180Z,7.4
2019-02-06T07:47:59.963Z,7.5
2019-02-06T07:48:50.300Z,7.5
2019-02-06T07:49:40.357Z,7.5
2019-02-06T07:50:31.206Z,7.5
2019-02-06T07:51:20.185Z,7.5
2019-02-06T07:52:10.245Z,7.5
2019-02-06T07:53:00.715Z,7.5
2019-02-06T07:53:50.702Z,7.5
2019-02-06T07:54:40.682Z,7.5
2019-02-06T07:55:30.758Z,7.5
2019-02-06T07:56:20.827Z,7.5
2019-02-06T07:57:10.592Z,7.5
2019-02-06T07:58:00.973Z,7.5
2019-02-06T07:58:52.702Z,7.5
2019-02-06T07:59:42.274Z,7.5
2019-02-06T08:00:30.845Z,7.5
2019-02-06T08:01:21.018Z,7.5
2019-02-06T08:02:11.232Z,7.6
2019-02-06T08:03:01.286Z,7.6
2019-02-06T08:03:51.057Z,7.6
2019-02-06T08:04:43.349Z,7.6
2019-02-06T08:05:31.837Z,7.5
2019-02-06T08:06:21.544Z,7.6
2019-02-06T08:07:11.282Z,7.5
2019-02-06T08:08:01.617Z,7.5
2019-02-06T08:08:51.410Z,7.5
2019-02-06T08:09:41.460Z,7.5
2019-02-06T08:10:31.531Z,7.5
2019-02-06T08:11:21.304Z,7.5
2019-02-06T08:12:11.945Z,7.5
2019-02-06T08:13:01.698Z,7.5
2019-02-06T08:13:52.022Z,7.5
2019-02-06T08:14:43.015Z,7.5
2019-02-06T08:15:31.854Z,7.5
2019-02-06T08:16:22.214Z,7.5
2019-02-06T08:17:12.265Z,7.5
2019-02-06T08:18:02.074Z,7.5
2019-02-06T08:18:52.384Z,7.6
2019-02-06T08:19:42.429Z,7.6
2019-02-06T08:20:32.494Z,7.5
2019-02-06T08:21:22.019Z,7.6
2019-02-06T08:22:12.341Z,7.6
2019-02-06T08:23:02.409Z,7.6
2019-02-06T08:23:53.841Z,7.6
2019-02-06T08:24:42.784Z,7.6
2019-02-06T08:25:32.854Z,7.6
2019-02-06T08:26:22.649Z,7.7
2019-02-06T08:27:12.689Z,7.8
2019-02-06T08:28:03.036Z,7.8
2019-02-06T08:28:53.083Z,7.8
2019-02-06T08:29:43.143Z,7.8
2019-02-06T08:30:32.916Z,7.8
2019-02-06T08:31:23.261Z,7.9
2019-02-06T08:32:13.032Z,7.9
2019-02-06T08:33:04.464Z,8
2019-02-06T08:33:53.151Z,8.1
2019-02-06T08:34:43.484Z,8.1
2019-02-06T08:35:33.273Z,8.2
2019-02-06T08:36:23.613Z,8.3
2019-02-06T08:37:13.373Z,8.3
2019-02-06T08:38:03.739Z,8.4
2019-02-06T08:38:56.580Z,8.4
2019-02-06T08:39:43.835Z,8.6
2019-02-06T08:40:33.634Z,8.6
2019-02-06T08:41:23.393Z,8.7
2019-02-06T08:42:14.870Z,8.8
2019-02-06T08:43:04.075Z,8.9
2019-02-06T08:43:54.115Z,8.9
2019-02-06T08:44:43.903Z,9
2019-02-06T08:45:34.256Z,9.1
2019-02-06T08:46:24.330Z,9.2
2019-02-06T08:47:14.365Z,9.3
2019-02-06T08:48:05.050Z,9.3
2019-02-06T08:48:54.467Z,9.3
2019-02-06T08:49:44.350Z,9.4
2019-02-06T08:50:34.586Z,9.4
2019-02-06T08:51:24.362Z,9.4
2019-02-06T08:52:14.707Z,9.5
2019-02-06T08:53:04.880Z,9.5
2019-02-06T08:53:54.550Z,9.6
2019-02-06T08:54:44.882Z,9.6
2019-02-06T08:55:34.667Z,9.6
2019-02-06T08:56:24.702Z,9.7
2019-02-06T08:57:16.272Z,9.8
2019-02-06T08:58:05.126Z,9.8
2019-02-06T08:58:54.882Z,9.9
2019-02-06T08:59:44.674Z,9.9
2019-02-06T09:00:35.277Z,9.9
2019-02-06T09:01:25.068Z,10
2019-02-06T09:02:14.831Z,10.1
2019-02-06T09:03:05.462Z,10.1
2019-02-06T09:03:55.522Z,10.1
2019-02-06T09:04:57.407Z,10.2
2019-02-06T09:05:35.399Z,10.3
2019-02-06T09:06:26.872Z,10.3
2019-02-06T09:07:15.749Z,10.4
2019-02-06T09:08:05.524Z,10.4
2019-02-06T09:09:01.711Z,10.4
2019-02-06T09:09:45.661Z,10.5
2019-02-06T09:10:35.991Z,10.5
2019-02-06T09:11:26.037Z,10.6
2019-02-06T09:12:16.004Z,10.6
2019-02-06T09:13:06.151Z,10.7
2019-02-06T09:13:56.218Z,10.8
2019-02-06T09:14:45.978Z,10.9
2019-02-06T09:15:37.130Z,10.9
2019-02-06T09:16:26.391Z,11.1
2019-02-06T09:17:16.438Z,11.2
2019-02-06T09:18:06.494Z,11.3
2019-02-06T09:18:56.569Z,11.4
2019-02-06T09:19:46.336Z,11.4
2019-02-06T09:20:36.383Z,11.6
2019-02-06T09:21:27.311Z,11.7
2019-02-06T09:22:16.792Z,11.8
2019-02-06T09:23:06.584Z,11.9
2019-02-06T09:23:57.003Z,11.9
2019-02-06T09:24:46.975Z,12.1
2019-02-06T09:25:37.018Z,12.2
2019-02-06T09:26:27.072Z,12.3
2019-02-06T09:27:16.874Z,12.4
2019-02-06T09:28:06.911Z,12.5
2019-02-06T09:28:57.355Z,12.6
2019-02-06T09:29:47.308Z,12.7
2019-02-06T09:30:38.713Z,12.8
2019-02-06T09:31:27.425Z,12.9
2019-02-06T09:32:17.208Z,12.9
2019-02-06T09:33:07.290Z,13.1
2019-02-06T09:33:57.042Z,13.1
2019-02-06T09:34:47.660Z,13.2
2019-02-06T09:35:37.722Z,13.3
2019-02-06T09:36:27.892Z,13.4
2019-02-06T09:37:17.560Z,13.4
2019-02-06T09:38:07.610Z,13.5
2019-02-06T09:38:57.952Z,13.6
2019-02-06T09:39:48.857Z,13.7
2019-02-06T09:40:38.107Z,13.8
2019-02-06T09:41:27.869Z,13.9
2019-02-06T09:42:17.967Z,13.9
2019-02-06T09:43:08.235Z,14
2019-02-06T09:43:58.300Z,14.1
2019-02-06T09:44:48.344Z,14.1
2019-02-06T09:45:39.252Z,14.1
2019-02-06T09:46:28.467Z,14.1
2019-02-06T09:47:18.560Z,14.2
2019-02-06T09:48:08.702Z,14.2
2019-02-06T09:48:58.642Z,14.2
2019-02-06T09:49:51.786Z,14.2
2019-02-06T09:50:38.760Z,14.3
2019-02-06T09:51:28.809Z,14.3
2019-02-06T09:52:18.613Z,14.3
2019-02-06T09:53:08.654Z,14.3
2019-02-06T09:53:59.009Z,14.3
2019-02-06T09:54:50.139Z,14.3
2019-02-06T09:55:38.655Z,14.3
2019-02-06T09:56:29.269Z,14.2
2019-02-06T09:57:18.949Z,14.2
2019-02-06T09:58:09.319Z,14.1
2019-02-06T09:58:59.362Z,14.1
2019-02-06T09:59:49.503Z,14.1
2019-02-06T10:00:39.625Z,14.1
2019-02-06T10:01:29.233Z,14.1
2019-02-06T10:02:19.569Z,14.1
2019-02-06T10:03:09.361Z,14
2019-02-06T10:04:00.123Z,14
2019-02-06T10:04:49.758Z,14
2019-02-06T10:07:17.295Z,13.9
2019-02-06T10:08:07.253Z,13.9
2019-02-06T10:08:57.018Z,13.9
2019-02-06T10:09:48.605Z,13.9
2019-02-06T10:10:37.418Z,13.9
2019-02-06T10:11:27.212Z,13.9
2019-02-06T10:12:17.535Z,13.8
2019-02-06T10:13:07.685Z,13.8
2019-02-06T10:13:57.880Z,13.8
2019-02-06T10:14:47.700Z,13.7
2019-02-06T10:15:37.813Z,13.7
2019-02-06T10:16:27.553Z,13.6
2019-02-06T10:17:17.880Z,13.6
2019-02-06T10:18:07.665Z,13.6
2019-02-06T10:18:57.740Z,13.5
2019-02-06T10:19:48.090Z,13.5
2019-02-06T10:20:37.831Z,13.4
2019-02-06T10:21:28.165Z,13.4
2019-02-06T10:22:17.949Z,13.4
2019-02-06T10:23:08.292Z,13.4
2019-02-06T10:23:58.349Z,13.4
2019-02-06T10:24:48.809Z,13.4
2019-02-06T10:25:38.519Z,13.3
2019-02-06T10:26:28.237Z,13.3
2019-02-06T10:27:18.576Z,13.3
2019-02-06T10:28:08.640Z,13.3
2019-02-06T10:28:58.510Z,13.3
2019-02-06T10:29:48.866Z,13.2
2019-02-06T10:30:38.812Z,13.2
2019-02-06T10:31:28.896Z,13.1
2019-02-06T10:32:18.914Z,13.1
2019-02-06T10:33:08.714Z,13.1
2019-02-06T10:33:59.727Z,13.1
2019-02-06T10:34:49.194Z,13.1
2019-02-06T10:35:39.176Z,13
2019-02-06T10:36:28.971Z,13
2019-02-06T10:37:19.304Z,12.9
2019-02-06T10:38:09.332Z,12.9
2019-02-06T10:38:59.112Z,12.9
2019-02-06T10:39:49.178Z,12.9
2019-02-06T10:40:39.231Z,12.9
2019-02-06T10:41:29.277Z,12.9
2019-02-06T10:42:19.356Z,12.9
2019-02-06T10:43:10.916Z,12.9
2019-02-06T10:43:59.692Z,12.9
2019-02-06T10:44:49.515Z,12.9
2019-02-06T10:45:39.698Z,12.9
2019-02-06T10:46:29.641Z,12.9
2019-02-06T10:47:19.428Z,12.9
2019-02-06T10:48:09.737Z,12.9
2019-02-06T10:48:59.540Z,12.9
2019-02-06T10:49:50.148Z,12.9
2019-02-06T10:50:40.200Z,12.9
2019-02-06T10:51:29.730Z,12.9
2019-02-06T10:52:21.139Z,12.9
2019-02-06T10:53:10.133Z,12.9
2019-02-06T10:54:00.440Z,12.9
2019-02-06T10:54:50.498Z,12.9
2019-02-06T10:55:40.279Z,12.9
2019-02-06T10:56:30.603Z,12.9
2019-02-06T10:57:20.396Z,12.9
2019-02-06T10:58:11.723Z,12.9
2019-02-06T10:59:00.505Z,12.9
2019-02-06T10:59:50.565Z,12.9
2019-02-06T11:00:41.007Z,12.9
2019-02-06T11:01:30.680Z,12.9
2019-02-06T11:02:21.007Z,12.9
2019-02-06T11:03:10.518Z,12.9
2019-02-06T11:04:01.119Z,12.8
2019-02-06T11:04:51.187Z,12.8
2019-02-06T11:05:40.710Z,12.8
2019-02-06T11:06:31.300Z,12.8
2019-02-06T11:07:22.339Z,12.7
2019-02-06T11:08:11.148Z,12.7
2019-02-06T11:09:01.217Z,12.6
2019-02-06T11:09:51.264Z,12.6
2019-02-06T11:10:41.587Z,12.6
2019-02-06T11:11:31.649Z,12.5
2019-02-06T11:12:24.400Z,12.5
2019-02-06T11:13:11.774Z,12.4
2019-02-06T11:14:01.826Z,12.4
2019-02-06T11:14:51.879Z,12.4
2019-02-06T11:15:41.931Z,12.4
2019-02-06T11:16:32.770Z,12.3
2019-02-06T11:17:22.057Z,12.3
2019-02-06T11:18:12.116Z,12.3
2019-02-06T11:19:02.171Z,12.2
2019-02-06T11:19:51.991Z,12.2
2019-02-06T11:20:42.309Z,12.1
2019-02-06T11:21:32.078Z,12.1
2019-02-06T11:22:23.179Z,12.1
2019-02-06T11:23:12.461Z,12
2019-02-06T11:24:02.341Z,11.9
2019-02-06T11:24:52.303Z,11.9
2019-02-06T11:25:42.976Z,11.9
2019-02-06T11:26:32.693Z,11.8
2019-02-06T11:27:22.753Z,11.8
2019-02-06T11:28:12.310Z,11.8
2019-02-06T11:29:02.593Z,11.7
2019-02-06T11:29:52.754Z,11.7
2019-02-06T11:30:42.721Z,11.6
2019-02-06T11:31:33.815Z,11.6
2019-02-06T11:32:23.112Z,11.6
2019-02-06T11:33:13.150Z,11.6
2019-02-06T11:34:02.928Z,11.6
2019-02-06T11:34:52.983Z,11.6
2019-02-06T11:35:43.051Z,11.6
2019-02-06T11:36:33.382Z,11.6
2019-02-06T11:37:23.150Z,11.6
2019-02-06T11:38:13.220Z,11.6
2019-02-06T11:39:03.292Z,11.6
2019-02-06T11:39:59.865Z,11.6
2019-02-06T11:40:44.647Z,11.6
2019-02-06T11:41:32.900Z,11.5
2019-02-06T11:42:23.800Z,11.5
2019-02-06T11:43:13.572Z,11.5
2019-02-06T11:44:18.567Z,11.5
2019-02-06T11:44:53.976Z,11.5
2019-02-06T11:45:43.749Z,11.4
2019-02-06T11:46:34.079Z,11.4
2019-02-06T11:47:24.137Z,11.4
2019-02-06T11:48:14.192Z,11.4
2019-02-06T11:49:03.978Z,11.4
2019-02-06T11:49:55.572Z,11.4
2019-02-06T11:50:44.159Z,11.4
2019-02-06T11:51:34.419Z,11.4
2019-02-06T11:52:24.479Z,11.4
2019-02-06T11:53:14.565Z,11.4
2019-02-06T11:54:04.607Z,11.4
2019-02-06T11:54:54.651Z,11.4
2019-02-06T11:55:44.721Z,11.4
2019-02-06T11:56:34.786Z,11.4
2019-02-06T11:57:26.059Z,11.4
2019-02-06T11:58:14.901Z,11.4
2019-02-06T11:59:06.303Z,11.4
2019-02-06T11:59:55.221Z,11.3
2019-02-06T12:00:44.778Z,11.3
2019-02-06T12:01:35.170Z,11.3
2019-02-06T12:02:36.574Z,11.3
2019-02-06T12:03:15.249Z,11.3
2019-02-06T12:04:05.288Z,11.3
2019-02-06T12:04:55.814Z,11.3
2019-02-06T12:07:16.520Z,11.3
2019-02-06T12:08:07.143Z,11.2
2019-02-06T12:08:56.938Z,11.2
2019-02-06T12:09:46.980Z,11.2
2019-02-06T12:10:38.588Z,11.2
2019-02-06T12:11:27.375Z,11.1
2019-02-06T12:12:17.433Z,11.1
2019-02-06T12:13:07.495Z,11.1
2019-02-06T12:13:57.600Z,11.1
2019-02-06T12:14:47.597Z,11.1
2019-02-06T12:15:39.598Z,11.1
2019-02-06T12:16:28.140Z,11.1
2019-02-06T12:17:17.780Z,11.1
2019-02-06T12:18:07.950Z,11.1
2019-02-06T12:18:57.609Z,11.1
2019-02-06T12:19:47.830Z,11.1
2019-02-06T12:20:37.737Z,11
2019-02-06T12:21:28.075Z,11
2019-02-06T12:22:18.115Z,11
2019-02-06T12:23:07.894Z,11
2019-02-06T12:23:58.252Z,11
2019-02-06T12:24:48.287Z,11
2019-02-06T12:25:39.920Z,11
2019-02-06T12:26:28.415Z,11
2019-02-06T12:27:18.194Z,10.9
2019-02-06T12:28:08.246Z,10.9
2019-02-06T12:28:58.589Z,10.9
2019-02-06T12:29:48.632Z,10.9
2019-02-06T12:30:38.819Z,10.9
2019-02-06T12:31:28.498Z,10.9
2019-02-06T12:32:18.816Z,10.9
2019-02-06T12:33:08.611Z,10.9
2019-02-06T12:33:58.651Z,10.9
2019-02-06T12:34:49.909Z,10.9
2019-02-06T12:35:38.766Z,10.9
2019-02-06T12:36:28.825Z,10.8
2019-02-06T12:37:19.160Z,10.8
2019-02-06T12:38:09.267Z,10.8
2019-02-06T12:38:59.298Z,10.8
2019-02-06T12:39:49.062Z,10.7
2019-02-06T12:40:40.388Z,10.7
2019-02-06T12:41:29.433Z,10.6
2019-02-06T12:42:19.226Z,10.6
2019-02-06T12:43:12.401Z,10.6
2019-02-06T12:43:59.429Z,10.6
2019-02-06T12:44:49.755Z,10.6
2019-02-06T12:45:39.736Z,10.6
2019-02-06T12:46:29.801Z,10.5
2019-02-06T12:47:19.569Z,10.5
2019-02-06T12:48:09.676Z,10.5
2019-02-06T12:48:59.698Z,10.4
2019-02-06T12:49:49.788Z,10.4
2019-02-06T12:50:39.850Z,10.4
2019-02-06T12:51:30.146Z,10.3
2019-02-06T12:52:21.276Z,10.3
2019-02-06T12:53:10.261Z,10.3
2019-02-06T12:53:59.755Z,10.3
2019-02-06T12:54:50.105Z,10.2
2019-02-06T12:55:39.867Z,10.1
2019-02-06T12:56:30.487Z,10.1
2019-02-06T12:57:20.537Z,10.1
2019-02-06T12:58:10.550Z,10.1
2019-02-06T12:59:00.410Z,10
2019-02-06T12:59:50.457Z,10
2019-02-06T13:00:40.499Z,10
2019-02-06T13:01:30.555Z,9.9
2019-02-06T13:02:20.986Z,9.9